Aeroporto :
LOGIN :

Iscrizione | Disclaimer

   EN    FR    IT 

 










Sommario :    VFR   VFR Marginale   IFR   IFR Intensivo   IFR Molto Intensivo
Visibilità : 
Base nubi : 
>= 8 km
>= 3000ft
5 / 8 km
1000 / 3000 ft
1500m / 5 km
500 / 1000 ft
800 / 1500m
200 / 500 ft
< 800m
< 200 ft
Simboli :   Temporali  Nebbia  Neve Forte  Precipitazioni Forti  Vento > 20 kt
SIGMETs :   Varie  Temporali  Ghiacco  Turbolenza  Onda orograficha  Ceneri Vulcaniche






- Altitudine del aeroporto : 1188 ft


LKLN - Plzen Line

ULTIMO METAR :
  • 250400Z AUTO 00000KT 0050 FG VV001 10/10 Q1018

METARs OBSOLETI :
  • 250300Z AUTO VRB01KT 8000 BKN001 BKN004 10/09 Q1018
  • 250200Z AUTO VRB01KT 0100 FG VV002 10/09 Q1018
  • 250100Z AUTO VRB01KT 5000 BR SCT001 BKN004 10/09 Q1018
  • 250000Z AUTO VRB01KT 7000 FEW030 11/10 Q1018

TAF N/A



MetMap, La meteo Aeronautica in un colpo d'occhio ! - Copyright ORBIFLY Dicembre 2007 - Disclaimer

ORBIFLY MET'MAP TEAM :

Programmazione e sviluppo : Alexandra Zaïnal
Concezione : Baudouin d'Aumeries
Supporto tecnico e logistico : Manuel Goepfert
Aiuto : Marc-Olivier Méhu
Aiuto per la traduzione : Arnaldo La Scala




FONTI E CREDITI :

   NOAA